KROC/ROC METAR and TAF weather

Enter ICAO airport designator
Station Type Date Time Source
KROC METAR 2020/07/15 00:54 UTC NOAA

KROC 150054Z 35003KT 10SM FEW080 BKN180 24/13 A3009 RMK AO2 SLP188 T02390133


Station Type Date Time Source
KROC Decoded METAR 2020/07/15 00:54 UTC NOAA

GREATER ROCHESTER INTERNATIONAL , NY, United States (KROC) 43-07N 077-41W 178M
Jul 14, 2020 - 08:54 PM EDT / 2020.07.15 0054 UTC
Wind: from the N (350 degrees) at 3 MPH (3 KT):0
Visibility: 10 mile(s):0
Sky conditions: mostly cloudy
Temperature: 75.0 F (23.9 C)
Dew Point: 55.9 F (13.3 C)
Relative Humidity: 51%
Pressure (altimeter): 30.09 in. Hg (1018 hPa)
ob: KROC 150054Z 35003KT 10SM FEW080 BKN180 24/13 A3009 RMK AO2 SLP188 T02390133
cycle: 1

Station Type Date Time Source
KROC TAF 2020/07/14 21:30 UTC NOAA

TAF
AMD KROC 142127Z 1421/1518 36006KT P6SM FEW040
FM150000 18003KT P6SM SCT250

Example: see airport list